createdAt,value
2017-10-30T00:00:33.719Z,0
2017-10-30T00:01:33.688Z,0
2017-10-30T00:02:33.662Z,0
2017-10-30T00:03:33.669Z,0
2017-10-30T00:04:33.609Z,0
2017-10-30T00:05:33.581Z,0
2017-10-30T00:06:33.554Z,0
2017-10-30T00:07:33.534Z,0
2017-10-30T00:08:33.510Z,0
2017-10-30T00:09:33.833Z,0
2017-10-30T00:10:32.838Z,0
2017-10-30T00:11:33.132Z,0
2017-10-30T00:12:33.090Z,0
2017-10-30T00:13:33.396Z,0
2017-10-30T00:14:33.038Z,0
2017-10-30T00:15:33.335Z,0
2017-10-30T00:16:32.986Z,0
2017-10-30T00:17:33.306Z,0
2017-10-30T00:18:33.266Z,0
2017-10-30T00:19:33.222Z,0
2017-10-30T00:20:32.896Z,0
2017-10-30T00:21:33.185Z,0
2017-10-30T00:22:33.153Z,0
2017-10-30T00:23:32.485Z,0
2017-10-30T00:24:32.784Z,0
2017-10-30T00:25:33.080Z,0
2017-10-30T00:26:33.074Z,0
2017-10-30T00:27:33.022Z,0
2017-10-30T00:28:33.001Z,0
2017-10-30T00:29:32.970Z,0
2017-10-30T00:30:32.631Z,0
2017-10-30T00:31:32.614Z,0
2017-10-30T00:32:32.603Z,0
2017-10-30T00:33:32.884Z,0
2017-10-30T00:34:32.859Z,0
2017-10-30T00:35:32.840Z,0
2017-10-30T00:36:32.797Z,0
2017-10-30T00:37:32.466Z,0
2017-10-30T00:38:32.757Z,0
2017-10-30T00:39:32.730Z,0
2017-10-30T00:40:32.706Z,0
2017-10-30T00:41:32.370Z,0
2017-10-30T00:42:32.664Z,0
2017-10-30T00:43:32.320Z,0
2017-10-30T00:44:32.605Z,0
2017-10-30T00:45:32.581Z,0
2017-10-30T00:46:32.555Z,0
2017-10-30T00:47:32.533Z,0
2017-10-30T00:48:32.185Z,0
2017-10-30T00:49:32.200Z,0
2017-10-30T00:50:32.131Z,0
2017-10-30T00:51:32.437Z,0
2017-10-30T00:52:32.414Z,0
2017-10-30T00:53:32.396Z,0
2017-10-30T00:54:32.351Z,0
2017-10-30T00:55:32.006Z,0
2017-10-30T00:56:31.662Z,0
2017-10-30T00:57:31.953Z,0
2017-10-30T00:58:32.281Z,0
2017-10-30T00:59:32.232Z,0
2017-10-30T01:00:32.242Z,0
2017-10-30T01:01:32.171Z,0
2017-10-30T01:02:32.148Z,0
2017-10-30T01:03:32.208Z,0
2017-10-30T01:04:31.778Z,0
2017-10-30T01:05:32.060Z,0
2017-10-30T01:06:32.064Z,0
2017-10-30T01:07:32.018Z,0
2017-10-30T01:08:31.668Z,0
2017-10-30T01:09:31.958Z,0
2017-10-30T01:10:31.651Z,0
2017-10-30T01:11:31.602Z,0
2017-10-30T01:12:31.877Z,0
2017-10-30T01:13:31.870Z,0
2017-10-30T01:14:31.852Z,0
2017-10-30T01:15:31.497Z,0
2017-10-30T01:16:31.277Z,0
2017-10-30T01:17:31.761Z,0
2017-10-30T01:18:31.418Z,0
2017-10-30T01:19:30.502Z,0
2017-10-30T01:20:31.116Z,0
2017-10-30T01:21:31.676Z,0
2017-10-30T01:22:31.017Z,0
2017-10-30T01:23:31.621Z,0
2017-10-30T01:24:31.590Z,0
2017-10-30T01:25:31.576Z,0
2017-10-30T01:26:31.534Z,0
2017-10-30T01:27:31.546Z,0
2017-10-30T01:28:31.837Z,0
2017-10-30T01:29:31.149Z,0
2017-10-30T01:30:31.442Z,0
2017-10-30T01:31:31.431Z,0
2017-10-30T01:32:31.394Z,0
2017-10-30T01:33:31.372Z,0
2017-10-30T01:34:31.340Z,0
2017-10-30T01:35:31.311Z,0
2017-10-30T01:36:31.291Z,0
2017-10-30T01:37:31.254Z,0
2017-10-30T01:38:31.232Z,0
2017-10-30T01:39:31.213Z,0
2017-10-30T01:40:31.198Z,0
2017-10-30T01:41:30.853Z,0
2017-10-30T01:42:31.139Z,0
2017-10-30T01:43:31.109Z,0
2017-10-30T01:44:31.089Z,0
2017-10-30T01:45:31.055Z,0
2017-10-30T01:46:31.033Z,0
2017-10-30T01:47:31.004Z,0
2017-10-30T01:48:30.988Z,0
2017-10-30T01:49:30.963Z,0
2017-10-30T01:50:30.940Z,0
2017-10-30T01:51:30.909Z,0
2017-10-30T01:52:30.890Z,0
2017-10-30T01:53:30.879Z,0
2017-10-30T01:54:30.189Z,0
2017-10-30T01:55:30.810Z,0
2017-10-30T01:56:30.785Z,0
2017-10-30T01:57:30.759Z,0
2017-10-30T01:58:30.752Z,0
2017-10-30T01:59:30.706Z,0
2017-10-30T02:00:30.678Z,0
2017-10-30T02:01:30.664Z,0
2017-10-30T02:02:30.625Z,0
2017-10-30T02:03:30.622Z,0
2017-10-30T02:04:30.596Z,0
2017-10-30T02:05:30.554Z,0
2017-10-30T02:06:30.532Z,0
2017-10-30T02:07:30.513Z,0
2017-10-30T02:08:30.470Z,0
2017-10-30T02:09:30.456Z,0
2017-10-30T02:10:30.120Z,0
2017-10-30T02:11:30.420Z,0
2017-10-30T02:12:30.410Z,0
2017-10-30T02:13:30.053Z,0
2017-10-30T02:14:30.330Z,0
2017-10-30T02:15:30.305Z,0
2017-10-30T02:16:30.263Z,0
2017-10-30T02:17:30.249Z,0
2017-10-30T02:18:30.213Z,0
2017-10-30T02:19:30.195Z,0
2017-10-30T02:20:30.165Z,0
2017-10-30T02:21:30.149Z,0
2017-10-30T02:22:30.136Z,0
2017-10-30T02:23:30.108Z,0
2017-10-30T02:24:30.069Z,0
2017-10-30T02:25:30.044Z,0
2017-10-30T02:26:29.700Z,0
2017-10-30T02:27:29.681Z,0
2017-10-30T02:28:29.974Z,0
2017-10-30T02:29:29.949Z,0
2017-10-30T02:30:29.929Z,0
2017-10-30T02:31:29.885Z,0
2017-10-30T02:32:29.894Z,0
2017-10-30T02:33:29.841Z,0
2017-10-30T02:34:29.813Z,0
2017-10-30T02:35:29.801Z,0
2017-10-30T02:36:29.776Z,0
2017-10-30T02:37:29.755Z,0
2017-10-30T02:38:29.722Z,0
2017-10-30T02:39:29.694Z,0
2017-10-30T02:40:29.681Z,0
2017-10-30T02:41:29.648Z,0
2017-10-30T02:42:29.305Z,0
2017-10-30T02:43:29.602Z,0
2017-10-30T02:44:29.576Z,0
2017-10-30T02:45:29.541Z,0
2017-10-30T02:46:29.518Z,0
2017-10-30T02:47:29.493Z,0
2017-10-30T02:48:29.476Z,0
2017-10-30T02:49:29.138Z,0
2017-10-30T02:50:29.417Z,0
2017-10-30T02:51:29.405Z,0
2017-10-30T02:52:29.063Z,0
2017-10-30T02:53:29.369Z,0
2017-10-30T02:54:29.323Z,0
2017-10-30T02:55:28.971Z,0
2017-10-30T02:56:29.275Z,0
2017-10-30T02:57:29.263Z,0
2017-10-30T02:58:29.208Z,0
2017-10-30T02:59:29.192Z,0
2017-10-30T03:00:28.848Z,0
2017-10-30T03:01:29.138Z,0
2017-10-30T03:02:29.116Z,0
2017-10-30T03:03:29.093Z,0
2017-10-30T03:04:29.074Z,0
2017-10-30T03:05:29.039Z,0
2017-10-30T03:06:29.010Z,0
2017-10-30T03:07:28.984Z,0
2017-10-30T03:08:28.971Z,0
2017-10-30T03:09:28.614Z,0
2017-10-30T03:10:28.911Z,0
2017-10-30T03:11:28.879Z,0
2017-10-30T03:12:28.852Z,0
2017-10-30T03:13:28.509Z,0
2017-10-30T03:14:28.813Z,0
2017-10-30T03:15:28.470Z,0
2017-10-30T03:16:28.758Z,0
2017-10-30T03:17:28.748Z,0
2017-10-30T03:18:28.716Z,0
2017-10-30T03:19:28.686Z,0
2017-10-30T03:20:28.663Z,0
2017-10-30T03:21:28.649Z,0
2017-10-30T03:22:28.610Z,0
2017-10-30T03:23:28.577Z,0
2017-10-30T03:24:28.548Z,0
2017-10-30T03:25:28.536Z,0
2017-10-30T03:26:28.509Z,0
2017-10-30T03:27:28.497Z,0
2017-10-30T03:28:28.450Z,0
2017-10-30T03:29:28.428Z,0
2017-10-30T03:30:28.441Z,0
2017-10-30T03:31:28.408Z,0
2017-10-30T03:32:28.350Z,0
2017-10-30T03:33:28.321Z,0
2017-10-30T03:34:28.303Z,0
2017-10-30T03:35:28.295Z,0
2017-10-30T03:36:28.251Z,0
2017-10-30T03:37:28.224Z,0
2017-10-30T03:38:27.878Z,0
2017-10-30T03:39:27.860Z,0
2017-10-30T03:40:28.148Z,0
2017-10-30T03:41:27.821Z,0
2017-10-30T03:42:27.775Z,0
2017-10-30T03:43:28.095Z,0
2017-10-30T03:44:28.048Z,0
2017-10-30T03:45:28.386Z,0
2017-10-30T03:46:28.001Z,0
2017-10-30T03:47:27.980Z,0
2017-10-30T03:48:27.945Z,0
2017-10-30T03:49:27.919Z,0
2017-10-30T03:50:27.904Z,0
2017-10-30T03:51:27.553Z,0
2017-10-30T03:52:27.847Z,0
2017-10-30T03:53:27.818Z,0
2017-10-30T03:54:27.799Z,0
2017-10-30T03:55:27.461Z,0
2017-10-30T03:56:27.746Z,0
2017-10-30T03:57:27.730Z,0
2017-10-30T03:58:27.378Z,0
2017-10-30T03:59:27.674Z,0
2017-10-30T04:00:27.644Z,0
2017-10-30T04:01:27.336Z,0
2017-10-30T04:02:27.278Z,0
2017-10-30T04:03:27.574Z,0
2017-10-30T04:04:27.226Z,0
2017-10-30T04:05:27.521Z,0
2017-10-30T04:06:27.172Z,0
2017-10-30T04:07:27.465Z,0
2017-10-30T04:08:27.436Z,0
2017-10-30T04:09:27.413Z,0
2017-10-30T04:10:27.387Z,0
2017-10-30T04:11:27.363Z,0
2017-10-30T04:12:27.035Z,0
2017-10-30T04:13:27.317Z,0
2017-10-30T04:14:27.313Z,0
2017-10-30T04:15:27.273Z,0
2017-10-30T04:16:27.235Z,0
2017-10-30T04:17:26.886Z,0
2017-10-30T04:18:27.188Z,0
2017-10-30T04:19:27.159Z,0
2017-10-30T04:20:27.137Z,0
2017-10-30T04:21:27.127Z,0
2017-10-30T04:22:27.084Z,0
2017-10-30T04:23:27.077Z,0
2017-10-30T04:24:27.040Z,0
2017-10-30T04:25:27.015Z,0
2017-10-30T04:26:26.988Z,0
2017-10-30T04:27:26.964Z,0
2017-10-30T04:28:26.978Z,0
2017-10-30T04:29:26.910Z,0
2017-10-30T04:30:26.569Z,0
2017-10-30T04:31:26.873Z,0
2017-10-30T04:32:26.518Z,0
2017-10-30T04:33:26.840Z,0
2017-10-30T04:34:26.508Z,0
2017-10-30T04:35:26.457Z,0
2017-10-30T04:36:26.751Z,0
2017-10-30T04:37:26.722Z,0
2017-10-30T04:38:26.690Z,0
2017-10-30T04:39:26.349Z,0
2017-10-30T04:40:26.325Z,0
2017-10-30T04:41:26.620Z,0
2017-10-30T04:42:26.590Z,0
2017-10-30T04:43:26.565Z,0
2017-10-30T04:44:25.909Z,0
2017-10-30T04:45:26.195Z,0
2017-10-30T04:46:26.480Z,0
2017-10-30T04:47:26.151Z,0
2017-10-30T04:48:26.121Z,0
2017-10-30T04:49:26.414Z,0
2017-10-30T04:50:26.447Z,0
2017-10-30T04:51:26.041Z,0
2017-10-30T04:52:26.025Z,0
2017-10-30T04:53:26.311Z,0
2017-10-30T04:54:25.986Z,0
2017-10-30T04:55:26.264Z,0
2017-10-30T04:56:26.293Z,0
2017-10-30T04:57:26.218Z,0
2017-10-30T04:58:26.189Z,0
2017-10-30T04:59:26.164Z,0
2017-10-30T05:00:25.840Z,0
2017-10-30T05:01:26.114Z,0
2017-10-30T05:02:26.094Z,0
2017-10-30T05:03:26.069Z,0
2017-10-30T05:04:26.036Z,0
2017-10-30T05:05:26.008Z,0
2017-10-30T05:06:25.993Z,0
2017-10-30T05:07:25.984Z,0
2017-10-30T05:08:25.619Z,0
2017-10-30T05:09:25.942Z,0
2017-10-30T05:10:25.898Z,0
2017-10-30T05:11:25.542Z,0
2017-10-30T05:12:26.182Z,0
2017-10-30T05:13:25.815Z,0
2017-10-30T05:14:25.796Z,0
2017-10-30T05:15:25.438Z,0
2017-10-30T05:16:25.736Z,0
2017-10-30T05:17:25.737Z,0
2017-10-30T05:18:25.361Z,0
2017-10-30T05:19:25.662Z,0
2017-10-30T05:20:25.310Z,0
2017-10-30T05:21:25.645Z,0
2017-10-30T05:22:25.590Z,0
2017-10-30T05:23:25.564Z,0
2017-10-30T05:24:25.541Z,0
2017-10-30T05:25:25.519Z,0
2017-10-30T05:26:25.504Z,0
2017-10-30T05:27:25.154Z,0
2017-10-30T05:28:25.116Z,0
2017-10-30T05:29:25.414Z,0
2017-10-30T05:30:25.396Z,0
2017-10-30T05:31:25.035Z,0
2017-10-30T05:32:25.337Z,0
2017-10-30T05:33:25.304Z,0
2017-10-30T05:34:25.286Z,0
2017-10-30T05:35:25.260Z,0
2017-10-30T05:36:25.231Z,0
2017-10-30T05:37:25.205Z,0
2017-10-30T05:38:25.187Z,0
2017-10-30T05:39:25.208Z,0
2017-10-30T05:40:25.136Z,0
2017-10-30T05:41:25.103Z,0
2017-10-30T05:42:24.775Z,0
2017-10-30T05:43:25.073Z,0
2017-10-30T05:44:25.036Z,0
2017-10-30T05:45:25.002Z,0
2017-10-30T05:46:24.976Z,0
2017-10-30T05:47:24.953Z,0
2017-10-30T05:48:24.930Z,0
2017-10-30T05:49:24.908Z,0
2017-10-30T05:50:24.910Z,0
2017-10-30T05:51:24.857Z,0
2017-10-30T05:52:24.831Z,0
2017-10-30T05:53:24.173Z,0
2017-10-30T05:54:24.783Z,0
2017-10-30T05:55:24.759Z,0
2017-10-30T05:56:24.727Z,0
2017-10-30T05:57:24.700Z,0
2017-10-30T05:58:24.680Z,0
2017-10-30T05:59:24.663Z,0
2017-10-30T06:00:24.623Z,0
2017-10-30T06:01:24.613Z,0
2017-10-30T06:02:24.587Z,0
2017-10-30T06:03:24.555Z,0
2017-10-30T06:04:24.211Z,0
2017-10-30T06:05:24.508Z,0
2017-10-30T06:06:24.483Z,0
2017-10-30T06:07:24.455Z,0
2017-10-30T06:08:24.430Z,0
2017-10-30T06:09:24.403Z,0
2017-10-30T06:10:24.375Z,0
2017-10-30T06:11:24.362Z,0
2017-10-30T06:12:24.329Z,0
2017-10-30T06:13:24.308Z,0
2017-10-30T06:14:24.298Z,5
2017-10-30T06:15:24.249Z,5
2017-10-30T06:16:23.910Z,5
2017-10-30T06:17:24.210Z,5
2017-10-30T06:18:24.182Z,5
2017-10-30T06:19:24.152Z,5
2017-10-30T06:20:24.150Z,5
2017-10-30T06:21:24.112Z,5
2017-10-30T06:22:24.078Z,5
2017-10-30T06:23:24.055Z,5
2017-10-30T06:24:24.018Z,5
2017-10-30T06:25:23.705Z,5
2017-10-30T06:26:23.974Z,5
2017-10-30T06:27:23.954Z,5
2017-10-30T06:28:23.935Z,10
2017-10-30T06:29:23.906Z,10
2017-10-30T06:30:23.881Z,10
2017-10-30T06:31:23.848Z,10
2017-10-30T06:32:23.822Z,10
2017-10-30T06:33:23.478Z,10
2017-10-30T06:34:23.789Z,10
2017-10-30T06:35:23.424Z,15
2017-10-30T06:36:23.724Z,15
2017-10-30T06:37:23.721Z,15
2017-10-30T06:38:23.361Z,20
2017-10-30T06:39:23.324Z,20
2017-10-30T06:40:23.303Z,20
2017-10-30T06:41:23.296Z,20
2017-10-30T06:42:23.583Z,20
2017-10-30T06:43:23.544Z,20
2017-10-30T06:44:23.527Z,20
2017-10-30T06:45:23.492Z,20
2017-10-30T06:46:23.468Z,20
2017-10-30T06:47:23.446Z,20
2017-10-30T06:48:23.425Z,25
2017-10-30T06:49:23.410Z,25
2017-10-30T06:50:23.377Z,25
2017-10-30T06:51:23.336Z,30
2017-10-30T06:52:23.335Z,30
2017-10-30T06:53:22.968Z,30
2017-10-30T06:54:23.274Z,35
2017-10-30T06:55:23.251Z,40
2017-10-30T06:56:22.908Z,40
2017-10-30T06:57:23.210Z,40
2017-10-30T06:58:23.517Z,40
2017-10-30T06:59:22.830Z,45
2017-10-30T07:00:23.122Z,45
2017-10-30T07:01:23.100Z,45
2017-10-30T07:02:22.768Z,50
2017-10-30T07:03:23.098Z,55
2017-10-30T07:04:22.720Z,55
2017-10-30T07:05:22.677Z,55
2017-10-30T07:06:22.981Z,55
2017-10-30T07:07:22.941Z,60
2017-10-30T07:08:22.926Z,65
2017-10-30T07:09:22.925Z,65
2017-10-30T07:10:22.873Z,65
2017-10-30T07:11:22.847Z,65
2017-10-30T07:12:22.508Z,65
2017-10-30T07:13:22.475Z,65
2017-10-30T07:14:22.781Z,65
2017-10-30T07:15:22.750Z,60
2017-10-30T07:16:22.721Z,65
2017-10-30T07:17:22.386Z,65
2017-10-30T07:18:22.665Z,70
2017-10-30T07:19:22.344Z,65
2017-10-30T07:20:22.300Z,70
2017-10-30T07:21:22.598Z,75
2017-10-30T07:22:22.577Z,80
2017-10-30T07:23:22.563Z,80
2017-10-30T07:24:22.205Z,80
2017-10-30T07:25:22.506Z,80
2017-10-30T07:26:22.490Z,85
2017-10-30T07:27:22.131Z,90
2017-10-30T07:28:22.098Z,95
2017-10-30T07:29:22.408Z,100
2017-10-30T07:30:22.386Z,100
2017-10-30T07:31:22.357Z,100
2017-10-30T07:32:22.332Z,105
2017-10-30T07:33:22.304Z,110
2017-10-30T07:34:22.279Z,115
2017-10-30T07:35:22.246Z,115
2017-10-30T07:36:21.912Z,120
2017-10-30T07:37:22.207Z,130
2017-10-30T07:38:21.862Z,135
2017-10-30T07:39:22.152Z,145
2017-10-30T07:40:22.140Z,155
2017-10-30T07:41:22.113Z,145
2017-10-30T07:42:22.076Z,125
2017-10-30T07:43:22.069Z,120
2017-10-30T07:44:22.041Z,125
2017-10-30T07:45:22.016Z,125
2017-10-30T07:46:21.661Z,125
2017-10-30T07:47:21.971Z,125
2017-10-30T07:48:21.940Z,120
2017-10-30T07:49:21.907Z,130
2017-10-30T07:50:21.894Z,125
2017-10-30T07:51:21.543Z,120
2017-10-30T07:52:21.840Z,120
2017-10-30T07:53:21.869Z,125
2017-10-30T07:54:21.461Z,130
2017-10-30T07:55:21.772Z,135
2017-10-30T07:56:21.753Z,140
2017-10-30T07:57:21.723Z,150
2017-10-30T07:58:21.704Z,155
2017-10-30T07:59:21.673Z,170
2017-10-30T08:00:21.326Z,190
2017-10-30T08:01:21.300Z,230
2017-10-30T08:02:21.608Z,405
2017-10-30T08:03:21.598Z,405
2017-10-30T08:04:21.549Z,390
2017-10-30T08:05:21.206Z,400
2017-10-30T08:06:21.508Z,360
2017-10-30T08:07:21.155Z,350
2017-10-30T08:08:21.461Z,290
2017-10-30T08:09:21.479Z,235
2017-10-30T08:10:21.093Z,215
2017-10-30T08:11:21.072Z,220
2017-10-30T08:12:21.049Z,210
2017-10-30T08:13:21.352Z,210
2017-10-30T08:14:21.323Z,215
2017-10-30T08:15:20.983Z,225
2017-10-30T08:16:21.276Z,240
2017-10-30T08:17:21.262Z,240
2017-10-30T08:18:21.243Z,225
2017-10-30T08:19:21.202Z,205
2017-10-30T08:20:21.189Z,190
2017-10-30T08:21:20.838Z,190
2017-10-30T08:22:20.823Z,195
2017-10-30T08:23:21.122Z,200
2017-10-30T08:24:21.096Z,200
2017-10-30T08:25:21.071Z,200
2017-10-30T08:26:21.067Z,195
2017-10-30T08:27:21.021Z,185
2017-10-30T08:28:21.003Z,185
2017-10-30T08:29:20.987Z,185
2017-10-30T08:30:20.968Z,180
2017-10-30T08:31:20.612Z,175
2017-10-30T08:32:20.933Z,160
2017-10-30T08:33:20.887Z,150
2017-10-30T08:34:20.546Z,145
2017-10-30T08:35:20.844Z,140
2017-10-30T08:36:20.815Z,140
2017-10-30T08:37:20.791Z,145
2017-10-30T08:38:20.783Z,155
2017-10-30T08:39:20.739Z,170
2017-10-30T08:40:20.719Z,180
2017-10-30T08:41:20.698Z,190
2017-10-30T08:42:20.694Z,200
2017-10-30T08:43:20.651Z,200
2017-10-30T08:44:20.621Z,195
2017-10-30T08:45:20.288Z,180
2017-10-30T08:46:20.588Z,170
2017-10-30T08:47:20.240Z,165
2017-10-30T08:48:20.532Z,170
2017-10-30T08:49:20.512Z,180
2017-10-30T08:50:20.173Z,180
2017-10-30T08:51:20.169Z,175
2017-10-30T08:52:20.436Z,165
2017-10-30T08:53:20.093Z,155
2017-10-30T08:54:20.396Z,150
2017-10-30T08:55:20.384Z,145
2017-10-30T08:56:20.352Z,150
2017-10-30T08:57:20.319Z,170
2017-10-30T08:58:20.295Z,210
2017-10-30T08:59:19.975Z,210
2017-10-30T09:00:20.250Z,230
2017-10-30T09:01:19.613Z,250
2017-10-30T09:02:20.204Z,285
2017-10-30T09:03:20.179Z,310
2017-10-30T09:04:20.159Z,320
2017-10-30T09:05:19.515Z,340
2017-10-30T09:06:20.121Z,305
2017-10-30T09:07:20.087Z,340
2017-10-30T09:08:20.064Z,350
2017-10-30T09:09:20.038Z,350
2017-10-30T09:10:20.018Z,355
2017-10-30T09:11:19.989Z,325
2017-10-30T09:12:19.970Z,280
2017-10-30T09:13:19.949Z,235
2017-10-30T09:14:19.616Z,215
2017-10-30T09:15:19.895Z,210
2017-10-30T09:16:19.556Z,215
2017-10-30T09:17:20.082Z,220
2017-10-30T09:18:19.829Z,210
2017-10-30T09:19:19.805Z,200
2017-10-30T09:20:19.461Z,180
2017-10-30T09:21:19.771Z,155
2017-10-30T09:22:19.737Z,140
2017-10-30T09:23:19.713Z,140
2017-10-30T09:24:19.384Z,145
2017-10-30T09:25:19.357Z,150
2017-10-30T09:26:19.650Z,150
2017-10-30T09:27:19.624Z,150
2017-10-30T09:28:19.290Z,160
2017-10-30T09:29:19.570Z,170
2017-10-30T09:30:19.551Z,170
2017-10-30T09:31:19.647Z,170
2017-10-30T09:32:19.502Z,160
2017-10-30T09:33:19.543Z,160
2017-10-30T09:34:19.142Z,160
2017-10-30T09:35:19.120Z,170
2017-10-30T09:36:19.413Z,195
2017-10-30T09:37:19.381Z,240
2017-10-30T09:38:19.377Z,285
2017-10-30T09:39:19.359Z,290
2017-10-30T09:40:19.313Z,285
2017-10-30T09:41:19.296Z,290
2017-10-30T09:42:19.298Z,315
2017-10-30T09:43:19.246Z,330
2017-10-30T09:44:19.227Z,345
2017-10-30T09:45:18.874Z,365
2017-10-30T09:46:19.176Z,355
2017-10-30T09:47:18.850Z,330
2017-10-30T09:48:19.143Z,325
2017-10-30T09:49:18.840Z,325
2017-10-30T09:50:19.090Z,300
2017-10-30T09:51:19.064Z,285
2017-10-30T09:52:18.692Z,270
2017-10-30T09:53:19.015Z,275
2017-10-30T09:54:19.039Z,295
2017-10-30T09:55:18.986Z,305
2017-10-30T09:56:18.022Z,310
2017-10-30T09:57:19.160Z,310
2017-10-30T09:58:18.576Z,315
2017-10-30T09:59:18.880Z,305
2017-10-30T10:00:18.850Z,290
2017-10-30T10:01:18.835Z,280
2017-10-30T10:02:18.821Z,285
2017-10-30T10:03:18.477Z,300
2017-10-30T10:04:18.781Z,295
2017-10-30T10:05:18.742Z,290
2017-10-30T10:06:18.719Z,275
2017-10-30T10:07:18.693Z,265
2017-10-30T10:08:18.673Z,255
2017-10-30T10:09:18.333Z,260
2017-10-30T10:10:17.715Z,290
2017-10-30T10:11:17.734Z,320
2017-10-30T10:12:18.598Z,310
2017-10-30T10:13:18.582Z,285
2017-10-30T10:14:18.222Z,295
2017-10-30T10:15:18.508Z,305
2017-10-30T10:16:18.484Z,300
2017-10-30T10:17:18.517Z,295
2017-10-30T10:18:18.460Z,310
2017-10-30T10:19:18.427Z,315
2017-10-30T10:20:18.421Z,310
2017-10-30T10:21:18.380Z,295
2017-10-30T10:22:18.035Z,280
2017-10-30T10:23:18.329Z,270
2017-10-30T10:24:18.310Z,275
2017-10-30T10:25:18.292Z,280
2017-10-30T10:26:17.940Z,280
2017-10-30T10:27:18.244Z,280
2017-10-30T10:28:17.909Z,275
2017-10-30T10:29:17.883Z,275
2017-10-30T10:30:18.170Z,270
2017-10-30T10:31:18.155Z,265
2017-10-30T10:32:18.149Z,255
2017-10-30T10:33:18.107Z,245
2017-10-30T10:34:18.080Z,240
2017-10-30T10:35:18.062Z,245
2017-10-30T10:36:18.061Z,235
2017-10-30T10:37:18.029Z,215
2017-10-30T10:38:17.993Z,195
2017-10-30T10:39:17.650Z,185
2017-10-30T10:40:17.949Z,165
2017-10-30T10:41:17.914Z,145
2017-10-30T10:42:17.889Z,140
2017-10-30T10:43:17.870Z,140
2017-10-30T10:44:17.545Z,135
2017-10-30T10:45:17.825Z,135
2017-10-30T10:46:17.813Z,135
2017-10-30T10:47:17.785Z,135
2017-10-30T10:48:17.438Z,140
2017-10-30T10:49:17.434Z,145
2017-10-30T10:50:17.707Z,150
2017-10-30T10:51:17.715Z,150
2017-10-30T10:52:17.351Z,145
2017-10-30T10:53:17.638Z,140
2017-10-30T10:54:17.629Z,140
2017-10-30T10:55:17.606Z,140
2017-10-30T10:56:17.248Z,135
2017-10-30T10:57:17.560Z,135
2017-10-30T10:58:17.527Z,135
2017-10-30T10:59:16.866Z,135
2017-10-30T11:00:16.838Z,135
2017-10-30T11:01:17.451Z,135
2017-10-30T11:02:17.118Z,135
2017-10-30T11:03:17.398Z,135
2017-10-30T11:04:17.071Z,140
2017-10-30T11:05:17.372Z,145
2017-10-30T11:06:16.697Z,160
2017-10-30T11:07:17.308Z,175
2017-10-30T11:08:17.291Z,190
2017-10-30T11:09:17.293Z,200
2017-10-30T11:10:17.242Z,215
2017-10-30T11:11:17.214Z,220
2017-10-30T11:12:17.188Z,225
2017-10-30T11:13:17.189Z,230
2017-10-30T11:14:17.141Z,235
2017-10-30T11:15:17.121Z,240
2017-10-30T11:16:17.100Z,240
2017-10-30T11:17:17.073Z,230
2017-10-30T11:18:17.047Z,210
2017-10-30T11:19:17.041Z,205
2017-10-30T11:20:16.686Z,195
2017-10-30T11:21:16.985Z,210
2017-10-30T11:22:16.668Z,200
2017-10-30T11:23:16.628Z,165
2017-10-30T11:24:16.602Z,160
2017-10-30T11:25:16.574Z,160
2017-10-30T11:26:16.880Z,180
2017-10-30T11:27:16.211Z,175
2017-10-30T11:28:16.847Z,200
2017-10-30T11:29:16.800Z,205
2017-10-30T11:30:16.780Z,215
2017-10-30T11:31:16.758Z,200
2017-10-30T11:32:16.732Z,175
2017-10-30T11:33:16.716Z,160
2017-10-30T11:34:16.697Z,160
2017-10-30T11:35:16.661Z,165
2017-10-30T11:36:16.658Z,175
2017-10-30T11:37:16.617Z,195
2017-10-30T11:38:16.601Z,225
2017-10-30T11:39:15.949Z,210
2017-10-30T11:40:16.247Z,195
2017-10-30T11:41:16.531Z,195
2017-10-30T11:42:16.512Z,215
2017-10-30T11:43:16.473Z,220
2017-10-30T11:44:16.446Z,225
2017-10-30T11:45:16.434Z,230
2017-10-30T11:46:16.406Z,235
2017-10-30T11:47:16.382Z,230
2017-10-30T11:48:16.397Z,210
2017-10-30T11:49:15.715Z,205
2017-10-30T11:50:16.341Z,205
2017-10-30T11:51:16.293Z,220
2017-10-30T11:52:16.275Z,235
2017-10-30T11:53:16.594Z,265
2017-10-30T11:54:15.907Z,270
2017-10-30T11:55:16.208Z,270
2017-10-30T11:56:16.190Z,265
2017-10-30T11:57:16.152Z,260
2017-10-30T11:58:16.140Z,250
2017-10-30T11:59:16.110Z,235
2017-10-30T12:00:16.121Z,220
2017-10-30T12:01:16.060Z,225
2017-10-30T12:02:15.737Z,225
2017-10-30T12:03:15.706Z,225
2017-10-30T12:04:16.005Z,230
2017-10-30T12:05:15.977Z,240
2017-10-30T12:06:15.942Z,245
2017-10-30T12:07:15.932Z,240
2017-10-30T12:08:15.589Z,235
2017-10-30T12:09:15.884Z,230
2017-10-30T12:10:15.870Z,220
2017-10-30T12:11:15.850Z,205
2017-10-30T12:12:15.801Z,195
2017-10-30T12:13:15.167Z,175
2017-10-30T12:14:15.788Z,165
2017-10-30T12:15:15.738Z,155
2017-10-30T12:16:15.408Z,140
2017-10-30T12:17:15.375Z,135
2017-10-30T12:18:15.365Z,135
2017-10-30T12:19:15.656Z,135
2017-10-30T12:20:15.630Z,145
2017-10-30T12:21:15.608Z,155
2017-10-30T12:22:15.593Z,155
2017-10-30T12:23:15.567Z,155
2017-10-30T12:24:15.542Z,145
2017-10-30T12:25:15.516Z,130
2017-10-30T12:26:15.844Z,125
2017-10-30T12:27:15.146Z,120
2017-10-30T12:28:14.825Z,120
2017-10-30T12:29:15.428Z,120
2017-10-30T12:30:15.477Z,120
2017-10-30T12:31:15.380Z,120
2017-10-30T12:32:15.471Z,115
2017-10-30T12:33:15.340Z,120
2017-10-30T12:34:15.034Z,120
2017-10-30T12:35:14.991Z,120
2017-10-30T12:36:15.266Z,125
2017-10-30T12:37:15.282Z,125
2017-10-30T12:38:15.238Z,125
2017-10-30T12:39:14.568Z,125
2017-10-30T12:40:15.201Z,130
2017-10-30T12:41:15.180Z,125
2017-10-30T12:42:15.140Z,125
2017-10-30T12:43:15.016Z,125
2017-10-30T12:44:15.106Z,120
2017-10-30T12:45:15.056Z,120
2017-10-30T12:46:14.398Z,120
2017-10-30T12:47:15.039Z,120
2017-10-30T12:48:14.995Z,125
2017-10-30T12:49:14.969Z,140
2017-10-30T12:51:14.951Z,160
2017-10-30T12:52:14.900Z,160
2017-10-30T12:53:14.569Z,165
2017-10-30T12:54:15.231Z,155
2017-10-30T12:55:14.848Z,175
2017-10-30T12:56:14.510Z,195
2017-10-30T12:57:14.473Z,200
2017-10-30T12:58:14.800Z,195
2017-10-30T12:59:14.458Z,180
2017-10-30T13:00:14.402Z,150
2017-10-30T13:01:14.364Z,140
2017-10-30T13:02:14.366Z,135
2017-10-30T13:03:14.321Z,135
2017-10-30T13:04:14.338Z,125
2017-10-30T13:05:14.282Z,120
2017-10-30T13:06:14.692Z,115
2017-10-30T13:07:14.220Z,120
2017-10-30T13:08:14.551Z,120
2017-10-30T13:09:14.498Z,120
2017-10-30T13:10:14.505Z,120
2017-10-30T13:11:14.467Z,120
2017-10-30T13:12:14.440Z,115
2017-10-30T13:13:14.413Z,110
2017-10-30T13:14:14.444Z,110
2017-10-30T13:15:14.375Z,110
2017-10-30T13:16:14.367Z,110
2017-10-30T13:17:14.010Z,110
2017-10-30T13:18:14.367Z,110
2017-10-30T13:19:13.964Z,110
2017-10-30T13:20:13.938Z,110
2017-10-30T13:21:13.908Z,110
2017-10-30T13:22:14.214Z,120
2017-10-30T13:23:14.205Z,115
2017-10-30T13:24:14.187Z,110
2017-10-30T13:25:14.138Z,115
2017-10-30T13:26:14.119Z,125
2017-10-30T13:27:14.083Z,130
2017-10-30T13:28:14.053Z,140
2017-10-30T13:29:14.473Z,140
2017-10-30T13:30:13.671Z,135
2017-10-30T13:31:14.325Z,135
2017-10-30T13:32:13.948Z,130
2017-10-30T13:33:13.606Z,120
2017-10-30T13:34:13.907Z,110
2017-10-30T13:35:13.565Z,110
2017-10-30T13:36:13.859Z,105
2017-10-30T13:37:13.841Z,105
2017-10-30T13:38:13.803Z,105
2017-10-30T13:39:13.783Z,110
2017-10-30T13:40:13.769Z,110
2017-10-30T13:41:13.426Z,115
2017-10-30T13:42:13.387Z,110
2017-10-30T13:43:13.390Z,115
2017-10-30T13:44:13.669Z,125
2017-10-30T13:45:13.344Z,120
2017-10-30T13:46:13.615Z,110
2017-10-30T13:47:13.609Z,115
2017-10-30T13:48:13.591Z,115
2017-10-30T13:49:13.551Z,120
2017-10-30T13:50:13.547Z,125
2017-10-30T13:51:13.507Z,125
2017-10-30T13:52:13.492Z,120
2017-10-30T13:53:13.147Z,120
2017-10-30T13:54:13.444Z,115
2017-10-30T13:55:13.408Z,115
2017-10-30T13:56:13.405Z,115
2017-10-30T13:57:13.375Z,120
2017-10-30T13:58:13.359Z,130
2017-10-30T13:59:13.317Z,130
2017-10-30T14:00:13.294Z,145
2017-10-30T14:01:13.291Z,155
2017-10-30T14:02:13.253Z,165
2017-10-30T14:03:13.236Z,175
2017-10-30T14:04:13.207Z,175
2017-10-30T14:05:13.189Z,175
2017-10-30T14:06:13.149Z,170
2017-10-30T14:07:12.486Z,160
2017-10-30T14:08:12.791Z,155
2017-10-30T14:09:13.088Z,150
2017-10-30T14:10:13.066Z,145
2017-10-30T14:11:13.041Z,140
2017-10-30T14:12:13.037Z,130
2017-10-30T14:13:12.675Z,115
2017-10-30T14:14:12.977Z,90
2017-10-30T14:15:12.953Z,70
2017-10-30T14:16:12.616Z,60